createdAt,value
2018-11-01T00:01:28.202Z,1.30
2018-11-01T00:03:57.090Z,1.07
2018-11-01T00:06:26.834Z,1.10
2018-11-01T00:08:56.709Z,1.63
2018-11-01T00:11:25.544Z,1.20
2018-11-01T00:13:54.107Z,1.00
2018-11-01T00:16:23.219Z,1.17
2018-11-01T00:18:52.416Z,1.50
2018-11-01T00:21:20.711Z,1.50
2018-11-01T00:23:49.793Z,1.23
2018-11-01T00:26:18.541Z,1.30
2018-11-01T00:28:47.175Z,1.33
2018-11-01T00:31:16.362Z,1.20
2018-11-01T00:41:09.427Z,1.40
2018-11-01T00:43:38.256Z,1.50
2018-11-01T00:46:06.804Z,1.20
2018-11-01T00:48:35.953Z,1.20
2018-11-01T00:51:04.879Z,1.47
2018-11-01T00:53:33.682Z,1.43
2018-11-01T00:56:02.571Z,1.70
2018-11-01T00:58:31.470Z,1.73
2018-11-01T01:01:01.144Z,1.50
2018-11-01T01:03:30.134Z,1.40
2018-11-01T01:05:58.930Z,1.53
2018-11-01T01:08:28.822Z,1.63
2018-11-01T01:10:57.125Z,1.80
2018-11-01T01:13:25.670Z,1.40
2018-11-01T01:15:54.493Z,1.47
2018-11-01T01:18:23.134Z,1.70
2018-11-01T01:20:52.498Z,1.57
2018-11-01T01:23:21.569Z,1.47
2018-11-01T01:25:50.193Z,1.60
2018-11-01T01:28:19.434Z,1.30
2018-11-01T01:30:47.878Z,1.07
2018-11-01T01:33:16.490Z,1.27
2018-11-01T01:35:45.195Z,1.60
2018-11-01T01:38:15.114Z,1.37
2018-11-01T01:40:44.317Z,1.60
2018-11-01T01:43:14.442Z,1.53
2018-11-01T01:45:43.332Z,2.37
2018-11-01T01:48:11.831Z,1.40
2018-11-01T01:50:40.939Z,2.67
2018-11-01T01:53:10.080Z,1.80
2018-11-01T01:55:39.105Z,1.70
2018-11-01T01:58:08.014Z,1.80
2018-11-01T02:00:36.806Z,1.80
2018-11-01T02:03:05.589Z,2.20
2018-11-01T02:05:34.182Z,1.70
2018-11-01T02:08:03.162Z,1.90
2018-11-01T02:10:32.694Z,1.83
2018-11-01T02:13:01.795Z,1.73
2018-11-01T02:15:31.585Z,2.20
2018-11-01T02:18:00.565Z,2.07
2018-11-01T02:20:29.609Z,1.90
2018-11-01T02:22:58.765Z,2.10
2018-11-01T02:25:27.690Z,1.73
2018-11-01T02:28:01.618Z,1.80
2018-11-01T02:30:30.713Z,1.77
2018-11-01T02:32:59.609Z,2.30
2018-11-01T02:35:28.683Z,1.90
2018-11-01T02:37:57.621Z,1.47
2018-11-01T02:40:26.907Z,1.90
2018-11-01T02:42:55.930Z,1.70
2018-11-01T02:45:24.901Z,2.03
2018-11-01T02:47:53.887Z,1.17
2018-11-01T02:50:23.689Z,1.57
2018-11-01T02:52:53.581Z,1.20
2018-11-01T02:55:23.002Z,1.70
2018-11-01T02:57:52.038Z,1.97
2018-11-01T03:00:21.330Z,1.83
2018-11-01T03:02:49.611Z,1.60
2018-11-01T03:05:18.798Z,1.40
2018-11-01T03:07:47.678Z,1.60
2018-11-01T03:10:16.721Z,1.30
2018-11-01T03:12:45.636Z,1.73
2018-11-01T03:15:15.344Z,1.37
2018-11-01T03:17:44.007Z,1.87
2018-11-01T03:20:13.301Z,1.50
2018-11-01T03:22:42.559Z,1.97
2018-11-01T03:25:11.129Z,1.70
2018-11-01T03:27:40.386Z,2.30
2018-11-01T03:30:09.437Z,1.63
2018-11-01T03:32:38.974Z,1.30
2018-11-01T03:35:08.434Z,1.50
2018-11-01T03:37:37.603Z,1.57
2018-11-01T03:40:07.118Z,1.90
2018-11-01T03:42:36.375Z,2.87
2018-11-01T03:45:05.918Z,1.60
2018-11-01T03:47:34.917Z,1.73
2018-11-01T03:50:04.283Z,1.93
2018-11-01T03:52:33.628Z,1.50
2018-11-01T03:55:02.882Z,1.50
2018-11-01T03:57:31.865Z,2.20
2018-11-01T04:00:00.817Z,1.50
2018-11-01T04:02:29.468Z,1.93
2018-11-01T04:04:57.729Z,1.87
2018-11-01T04:07:27.370Z,2.00
2018-11-01T04:09:56.658Z,2.17
2018-11-01T04:12:25.930Z,1.70
2018-11-01T04:14:55.061Z,1.70
2018-11-01T04:17:24.006Z,1.67
2018-11-01T04:19:52.943Z,1.50
2018-11-01T04:22:22.119Z,1.60
2018-11-01T04:24:51.274Z,2.30
2018-11-01T04:27:20.086Z,2.20
2018-11-01T04:29:49.066Z,1.70
2018-11-01T04:32:18.010Z,1.67
2018-11-01T04:34:47.073Z,1.90
2018-11-01T04:37:16.117Z,1.57
2018-11-01T04:39:45.336Z,1.80
2018-11-01T04:42:14.567Z,1.90
2018-11-01T04:44:43.641Z,2.17
2018-11-01T04:47:12.894Z,1.70
2018-11-01T04:49:41.803Z,1.67
2018-11-01T04:52:10.821Z,1.40
2018-11-01T04:54:39.661Z,2.30
2018-11-01T04:57:08.814Z,1.83
2018-11-01T04:59:38.254Z,2.37
2018-11-01T05:02:07.507Z,1.90
2018-11-01T05:04:36.509Z,1.83
2018-11-01T05:07:06.245Z,1.60
2018-11-01T05:09:36.142Z,2.00
2018-11-01T05:12:05.381Z,1.70
2018-11-01T05:14:34.237Z,1.87
2018-11-01T05:17:03.482Z,1.83
2018-11-01T05:19:32.662Z,1.60
2018-11-01T05:22:02.219Z,1.80
2018-11-01T05:24:31.105Z,2.00
2018-11-01T05:27:00.354Z,1.90
2018-11-01T05:29:29.603Z,1.63
2018-11-01T05:31:58.250Z,2.00
2018-11-01T05:34:27.008Z,1.83
2018-11-01T05:36:56.174Z,1.97
2018-11-01T05:39:25.561Z,2.17
2018-11-01T05:41:54.539Z,2.53
2018-11-01T05:44:23.141Z,2.23
2018-11-01T05:46:52.501Z,2.47
2018-11-01T05:49:21.089Z,2.10
2018-11-01T05:51:49.833Z,2.10
2018-11-01T05:54:18.932Z,2.17
2018-11-01T05:56:48.342Z,2.00
2018-11-01T05:59:18.489Z,2.37
2018-11-01T06:01:56.449Z,2.50
2018-11-01T06:04:25.142Z,1.90
2018-11-01T06:06:54.076Z,2.00
2018-11-01T06:09:28.178Z,1.77
2018-11-01T06:11:57.260Z,1.87
2018-11-01T06:14:26.544Z,2.70
2018-11-01T06:16:55.726Z,2.10
2018-11-01T06:19:24.889Z,2.07
2018-11-01T06:21:54.140Z,1.67
2018-11-01T06:24:22.712Z,2.33
2018-11-01T06:26:51.184Z,2.07
2018-11-01T06:29:20.849Z,2.13
2018-11-01T06:31:50.018Z,2.33
2018-11-01T06:34:23.893Z,2.23
2018-11-01T06:36:52.772Z,1.87
2018-11-01T06:39:21.968Z,1.80
2018-11-01T06:41:52.314Z,2.27
2018-11-01T06:44:21.423Z,1.73
2018-11-01T06:46:50.445Z,2.03
2018-11-01T06:49:20.261Z,2.40
2018-11-01T06:51:49.509Z,2.13
2018-11-01T06:54:18.316Z,2.00
2018-11-01T06:56:47.352Z,3.23
2018-11-01T06:59:16.634Z,2.42
2018-11-01T07:01:45.558Z,2.70
2018-11-01T07:04:15.031Z,2.37
2018-11-01T07:06:44.645Z,2.10
2018-11-01T07:09:14.761Z,2.10
2018-11-01T07:11:43.948Z,2.27
2018-11-01T07:14:12.965Z,2.03
2018-11-01T07:16:42.094Z,2.17
2018-11-01T07:19:10.464Z,2.80
2018-11-01T07:21:40.648Z,2.60
2018-11-01T07:24:09.072Z,2.27
2018-11-01T07:26:38.653Z,2.00
2018-11-01T07:29:07.359Z,2.53
2018-11-01T07:31:36.625Z,2.20
2018-11-01T07:34:05.560Z,1.80
2018-11-01T07:36:34.765Z,2.30
2018-11-01T07:39:03.953Z,2.57
2018-11-01T07:41:33.146Z,2.57
2018-11-01T07:44:02.360Z,2.20
2018-11-01T07:46:31.714Z,2.60
2018-11-01T07:49:01.552Z,2.67
2018-11-01T07:51:29.867Z,3.20
2018-11-01T07:56:37.540Z,2.67
2018-11-01T07:59:06.217Z,2.40
2018-11-01T08:01:34.940Z,2.60
2018-11-01T08:04:04.668Z,2.90
2018-11-01T08:06:33.625Z,2.77
2018-11-01T08:09:03.861Z,2.07
2018-11-01T08:11:33.114Z,2.33
2018-11-01T08:14:02.429Z,2.03
2018-11-01T08:16:31.801Z,2.37
2018-11-01T08:19:00.723Z,2.23
2018-11-01T08:21:29.815Z,2.73
2018-11-01T08:23:59.155Z,2.13
2018-11-01T08:26:27.672Z,2.87
2018-11-01T08:28:56.398Z,2.10
2018-11-01T08:31:26.270Z,1.70
2018-11-01T08:33:55.645Z,1.93
2018-11-01T08:36:24.980Z,2.17
2018-11-01T08:38:53.905Z,2.00
2018-11-01T08:41:23.212Z,1.90
2018-11-01T08:43:52.181Z,2.17
2018-11-01T08:46:20.773Z,2.23
2018-11-01T08:48:49.534Z,2.10
2018-11-01T08:51:18.668Z,2.00
2018-11-01T08:53:47.437Z,2.43
2018-11-01T08:56:16.858Z,2.30
2018-11-01T08:58:46.190Z,2.27
2018-11-01T09:01:16.116Z,2.00
2018-11-01T09:03:44.816Z,1.80
2018-11-01T09:06:14.113Z,2.80
2018-11-01T09:08:43.152Z,2.67
2018-11-01T09:11:12.441Z,2.10
2018-11-01T09:13:41.114Z,2.73
2018-11-01T09:16:10.112Z,2.33
2018-11-01T09:18:38.793Z,1.90
2018-11-01T09:21:07.548Z,2.27
2018-11-01T09:23:36.104Z,2.50
2018-11-01T09:26:05.105Z,2.33
2018-11-01T09:28:33.682Z,2.70
2018-11-01T09:31:02.928Z,2.73
2018-11-01T09:33:31.867Z,2.37
2018-11-01T09:36:00.863Z,2.50
2018-11-01T09:38:29.989Z,1.87
2018-11-01T09:40:59.900Z,2.53
2018-11-01T09:43:29.629Z,3.13
2018-11-01T09:45:58.840Z,3.00
2018-11-01T09:48:28.229Z,3.43
2018-11-01T09:50:57.528Z,3.03
2018-11-01T09:53:26.640Z,2.80
2018-11-01T09:55:55.434Z,2.63
2018-11-01T09:58:24.816Z,2.33
2018-11-01T10:00:53.636Z,2.33
2018-11-01T10:03:23.364Z,2.30
2018-11-01T10:05:52.539Z,2.63
2018-11-01T10:08:21.926Z,2.60
2018-11-01T10:10:50.603Z,2.40
2018-11-01T10:13:19.472Z,2.33
2018-11-01T10:15:48.948Z,2.83
2018-11-01T10:18:18.109Z,2.27
2018-11-01T10:20:46.736Z,1.93
2018-11-01T10:23:15.404Z,3.10
2018-11-01T10:25:44.497Z,3.23
2018-11-01T10:28:13.490Z,3.07
2018-11-01T10:30:43.259Z,3.00
2018-11-01T10:33:11.921Z,3.03
2018-11-01T10:35:40.621Z,3.80
2018-11-01T10:38:09.076Z,2.63
2018-11-01T10:40:38.028Z,2.93
2018-11-01T10:43:06.649Z,2.87
2018-11-01T10:45:35.280Z,2.70
2018-11-01T10:48:04.247Z,3.00
2018-11-01T10:50:33.858Z,2.47
2018-11-01T10:53:03.329Z,2.63
2018-11-01T10:55:32.549Z,3.10
2018-11-01T10:58:01.835Z,2.70
2018-11-01T11:00:37.201Z,3.13
2018-11-01T11:03:06.008Z,2.73
2018-11-01T11:05:35.105Z,2.93
2018-11-01T11:08:04.818Z,2.53
2018-11-01T11:10:33.963Z,2.77
2018-11-01T11:13:07.274Z,2.90
2018-11-01T11:15:36.581Z,2.63
2018-11-01T11:18:05.728Z,2.40
2018-11-01T11:20:34.488Z,2.77
2018-11-01T11:23:04.060Z,2.30
2018-11-01T11:25:33.133Z,2.63
2018-11-01T11:28:02.057Z,2.90
2018-11-01T11:30:31.021Z,2.80
2018-11-01T11:33:00.041Z,2.40
2018-11-01T11:35:29.279Z,2.77
2018-11-01T11:37:58.501Z,2.83
2018-11-01T11:40:27.092Z,2.40
2018-11-01T11:42:56.423Z,2.33
2018-11-01T11:45:26.212Z,2.50
2018-11-01T11:47:55.521Z,2.90
2018-11-01T11:50:25.150Z,3.07
2018-11-01T11:52:54.354Z,2.50
2018-11-01T11:55:23.078Z,2.73
2018-11-01T11:57:52.010Z,2.50
2018-11-01T12:00:21.321Z,2.47
2018-11-01T12:02:50.240Z,2.50
2018-11-01T12:05:19.252Z,2.30
2018-11-01T12:07:48.269Z,2.70
2018-11-01T12:10:17.306Z,3.00
2018-11-01T12:12:45.726Z,2.33
2018-11-01T12:15:14.845Z,2.67
2018-11-01T12:17:43.616Z,2.90
2018-11-01T12:20:14.005Z,2.80
2018-11-01T12:22:43.432Z,2.33
2018-11-01T12:25:12.589Z,2.67
2018-11-01T12:27:41.628Z,2.83
2018-11-01T12:30:11.474Z,2.60
2018-11-01T12:32:40.853Z,2.87
2018-11-01T12:35:10.659Z,2.50
2018-11-01T12:37:40.093Z,2.50
2018-11-01T12:40:10.300Z,2.90
2018-11-01T12:42:39.364Z,3.10
2018-11-01T12:45:09.478Z,2.60
2018-11-01T12:47:38.722Z,2.87
2018-11-01T12:50:08.265Z,2.40
2018-11-01T12:52:36.925Z,2.00
2018-11-01T12:55:05.808Z,2.57
2018-11-01T12:57:34.692Z,2.70
2018-11-01T13:00:03.473Z,2.50
2018-11-01T13:02:32.385Z,2.63
2018-11-01T13:05:01.130Z,2.40
2018-11-01T13:07:29.990Z,2.90
2018-11-01T13:09:58.684Z,2.90
2018-11-01T13:12:27.517Z,3.00
2018-11-01T13:14:55.825Z,3.70
2018-11-01T13:17:24.768Z,4.07
2018-11-01T13:19:53.500Z,3.17
2018-11-01T13:22:22.696Z,3.50
2018-11-01T13:24:51.646Z,2.93
2018-11-01T13:27:21.149Z,3.47
2018-11-01T13:29:49.889Z,3.43
2018-11-01T13:32:18.957Z,3.30
2018-11-01T13:34:47.809Z,3.17
2018-11-01T13:37:17.060Z,3.40
2018-11-01T13:39:45.926Z,3.63
2018-11-01T13:42:14.868Z,3.67
2018-11-01T13:44:43.605Z,3.70
2018-11-01T13:47:12.109Z,3.77
2018-11-01T13:49:41.095Z,3.20
2018-11-01T13:52:10.177Z,3.57
2018-11-01T13:54:39.336Z,3.87
2018-11-01T13:57:08.269Z,3.83
2018-11-01T13:59:37.853Z,3.07
2018-11-01T14:02:06.673Z,3.50
2018-11-01T14:04:35.416Z,3.77
2018-11-01T14:07:04.316Z,3.90
2018-11-01T14:09:33.557Z,3.47
2018-11-01T14:12:02.458Z,3.77
2018-11-01T14:14:32.678Z,4.03
2018-11-01T14:17:00.916Z,3.83
2018-11-01T14:19:29.910Z,4.73
2018-11-01T14:21:58.483Z,5.00
2018-11-01T14:24:27.157Z,4.73
2018-11-01T14:26:56.428Z,4.60
2018-11-01T14:29:25.581Z,4.50
2018-11-01T14:31:54.569Z,4.63
2018-11-01T14:34:24.308Z,5.00
2018-11-01T14:36:53.457Z,5.43
2018-11-01T14:39:22.308Z,4.20
2018-11-01T14:41:51.156Z,5.07
2018-11-01T14:44:19.818Z,4.63
2018-11-01T14:46:49.125Z,5.80
2018-11-01T14:49:19.274Z,5.40
2018-11-01T14:51:48.405Z,5.47
2018-11-01T14:54:17.841Z,5.40
2018-11-01T14:56:48.154Z,5.30
2018-11-01T14:59:16.376Z,5.57
2018-11-01T15:01:44.426Z,6.03
2018-11-01T15:04:14.300Z,6.03
2018-11-01T15:06:43.670Z,5.97
2018-11-01T15:09:13.441Z,5.67
2018-11-01T15:11:42.404Z,6.17
2018-11-01T15:14:11.153Z,6.10
2018-11-01T15:16:40.461Z,6.63
2018-11-01T15:19:09.343Z,6.73
2018-11-01T15:21:38.628Z,7.03
2018-11-01T15:24:08.804Z,6.93
2018-11-01T15:26:38.077Z,7.57
2018-11-01T15:29:08.630Z,7.43
2018-11-01T15:31:38.380Z,7.10
2018-11-01T15:34:07.713Z,7.77
2018-11-01T15:36:37.254Z,8.33
2018-11-01T15:39:08.305Z,7.33
2018-11-01T15:41:37.161Z,7.87
2018-11-01T15:44:06.161Z,8.40
2018-11-01T15:46:34.990Z,8.00
2018-11-01T15:49:04.197Z,7.90
2018-11-01T15:51:33.189Z,7.17
2018-11-01T15:54:01.949Z,8.70
2018-11-01T15:56:31.133Z,8.53
2018-11-01T15:58:59.976Z,8.40
2018-11-01T16:01:28.719Z,8.77
2018-11-01T16:03:57.745Z,10.30
2018-11-01T16:06:26.424Z,8.50
2018-11-01T16:08:55.417Z,8.43
2018-11-01T16:11:24.836Z,9.03
2018-11-01T16:13:54.236Z,8.70
2018-11-01T16:16:23.585Z,10.03
2018-11-01T16:18:52.224Z,10.30
2018-11-01T16:21:21.041Z,9.23
2018-11-01T16:23:50.305Z,9.53
2018-11-01T16:26:20.177Z,9.27
2018-11-01T16:28:49.987Z,9.87
2018-11-01T16:31:19.197Z,9.20
2018-11-01T16:33:48.159Z,10.77
2018-11-01T16:36:17.481Z,10.23
2018-11-01T16:38:46.556Z,9.53
2018-11-01T16:41:15.247Z,9.77
2018-11-01T16:43:44.464Z,9.17
2018-11-01T16:46:13.350Z,9.73
2018-11-01T16:48:42.385Z,9.00
2018-11-01T16:51:11.537Z,9.23
2018-11-01T16:53:40.664Z,8.97
2018-11-01T16:56:10.111Z,9.33
2018-11-01T16:58:39.416Z,9.00
2018-11-01T17:01:08.764Z,8.43
2018-11-01T17:03:37.486Z,8.50
2018-11-01T17:06:08.332Z,8.60
2018-11-01T17:08:39.252Z,8.33
2018-11-01T17:11:12.037Z,9.40
2018-11-01T17:13:42.740Z,8.40
2018-11-01T17:16:12.656Z,7.93
2018-11-01T17:18:42.212Z,7.90
2018-11-01T17:21:11.378Z,7.03
2018-11-01T17:23:41.675Z,8.77
2018-11-01T17:26:12.054Z,7.23
2018-11-01T17:28:42.170Z,7.10
2018-11-01T17:31:11.745Z,6.90
2018-11-01T17:33:40.831Z,7.27
2018-11-01T17:36:12.161Z,7.33
2018-11-01T17:38:42.638Z,6.70
2018-11-01T17:41:12.683Z,6.83
2018-11-01T17:43:41.434Z,6.83
2018-11-01T17:46:11.045Z,6.53
2018-11-01T17:48:40.000Z,6.85
2018-11-01T17:51:14.144Z,6.40
2018-11-01T17:53:47.177Z,6.33
2018-11-01T17:56:17.212Z,6.37
2018-11-01T17:58:48.609Z,6.00
2018-11-01T18:01:17.549Z,6.17
2018-11-01T18:03:46.201Z,6.27
2018-11-01T18:06:15.141Z,5.60
2018-11-01T18:08:44.226Z,5.30
2018-11-01T18:11:13.113Z,5.47
2018-11-01T18:13:42.049Z,5.73
2018-11-01T18:16:10.977Z,4.97
2018-11-01T18:18:40.225Z,4.53
2018-11-01T18:21:09.545Z,4.97
2018-11-01T18:23:38.934Z,4.70
2018-11-01T18:26:08.051Z,4.63
2018-11-01T18:28:37.174Z,4.77
2018-11-01T18:31:06.467Z,4.43
2018-11-01T18:33:35.537Z,5.30
2018-11-01T18:36:04.174Z,4.50
2018-11-01T18:38:33.217Z,4.97
2018-11-01T18:41:02.610Z,4.97
2018-11-01T18:43:31.760Z,5.10
2018-11-01T18:46:00.723Z,5.13
2018-11-01T18:48:30.681Z,4.63
2018-11-01T18:51:00.287Z,5.50
2018-11-01T18:53:29.244Z,5.53
2018-11-01T18:55:58.281Z,5.80
2018-11-01T18:58:30.904Z,6.70
2018-11-01T19:00:59.801Z,6.40
2018-11-01T19:03:34.454Z,6.00
2018-11-01T19:06:03.724Z,7.03
2018-11-01T19:08:33.001Z,6.97
2018-11-01T19:11:02.692Z,7.50
2018-11-01T19:13:31.898Z,6.63
2018-11-01T19:16:01.012Z,8.37
2018-11-01T19:18:29.971Z,7.90
2018-11-01T19:20:59.189Z,8.07
2018-11-01T19:23:29.145Z,8.70
2018-11-01T19:25:58.225Z,11.80
2018-11-01T19:28:27.558Z,13.63
2018-11-01T19:30:56.797Z,13.97
2018-11-01T19:33:25.709Z,13.87
2018-11-01T19:35:54.912Z,15.83
2018-11-01T19:38:23.589Z,14.70
2018-11-01T19:40:52.261Z,15.83
2018-11-01T19:43:20.867Z,15.87
2018-11-01T19:45:50.001Z,16.40
2018-11-01T19:48:18.744Z,16.63
2018-11-01T19:50:47.637Z,17.30
2018-11-01T19:53:16.637Z,18.97
2018-11-01T19:55:45.783Z,18.17
2018-11-01T19:58:15.058Z,19.17
2018-11-01T20:00:43.768Z,19.30
2018-11-01T20:03:12.800Z,20.00
2018-11-01T20:05:41.962Z,21.20
2018-11-01T20:08:10.980Z,20.37
2018-11-01T20:10:40.337Z,20.47
2018-11-01T20:13:10.341Z,21.87
2018-11-01T20:15:39.121Z,20.73
2018-11-01T20:18:08.468Z,21.07
2018-11-01T20:20:37.186Z,18.87
2018-11-01T20:23:06.579Z,19.70
2018-11-01T20:25:35.570Z,18.60
2018-11-01T20:28:05.497Z,18.00
2018-11-01T20:30:34.521Z,17.77
2018-11-01T20:33:03.569Z,17.73
2018-11-01T20:35:32.889Z,16.87
2018-11-01T20:38:01.660Z,16.53
2018-11-01T20:40:30.677Z,16.27
2018-11-01T20:42:59.892Z,14.93
2018-11-01T20:45:29.233Z,16.77
2018-11-01T20:47:58.696Z,16.07
2018-11-01T20:50:27.959Z,16.90
2018-11-01T20:52:56.925Z,15.53
2018-11-01T20:55:26.060Z,15.03
2018-11-01T20:57:54.553Z,15.15
2018-11-01T21:00:24.071Z,16.40
2018-11-01T21:02:53.389Z,17.60
2018-11-01T21:05:22.336Z,16.37
2018-11-01T21:07:51.069Z,15.50
2018-11-01T21:10:20.808Z,17.33
2018-11-01T21:12:49.395Z,17.50
2018-11-01T21:15:17.937Z,16.17
2018-11-01T21:17:47.075Z,18.43
2018-11-01T21:20:15.912Z,17.50
2018-11-01T21:22:44.959Z,18.00
2018-11-01T21:25:14.265Z,16.73
2018-11-01T21:27:42.763Z,19.30
2018-11-01T21:30:12.257Z,16.97
2018-11-01T21:32:41.314Z,18.13
2018-11-01T21:35:09.836Z,17.05
2018-11-01T21:37:38.947Z,17.33
2018-11-01T21:40:08.535Z,16.87
2018-11-01T21:42:37.792Z,17.03
2018-11-01T21:45:07.605Z,17.57
2018-11-01T21:47:36.353Z,17.33
2018-11-01T21:50:05.061Z,16.87
2018-11-01T21:52:34.082Z,16.27
2018-11-01T21:55:03.856Z,16.10
2018-11-01T21:57:32.237Z,17.00
2018-11-01T22:00:01.173Z,16.93
2018-11-01T22:02:30.148Z,16.50
2018-11-01T22:04:59.145Z,17.67
2018-11-01T22:07:27.893Z,18.40
2018-11-01T22:09:57.670Z,17.37
2018-11-01T22:12:27.464Z,17.70
2018-11-01T22:14:57.221Z,18.87
2018-11-01T22:17:26.582Z,18.17
2018-11-01T22:19:55.352Z,18.60
2018-11-01T22:22:24.857Z,18.13
2018-11-01T22:24:53.496Z,20.03
2018-11-01T22:27:22.072Z,19.47
2018-11-01T22:29:50.521Z,18.90
2018-11-01T22:32:20.205Z,18.80
2018-11-01T22:34:49.550Z,18.40
2018-11-01T22:37:19.285Z,19.10
2018-11-01T22:39:48.146Z,19.53
2018-11-01T22:42:16.988Z,19.07
2018-11-01T22:44:45.994Z,19.35
2018-11-01T22:47:15.189Z,19.30
2018-11-01T22:49:44.187Z,19.10
2018-11-01T22:52:12.912Z,18.63
2018-11-01T22:54:41.580Z,20.13
2018-11-01T22:57:10.066Z,19.20
2018-11-01T22:59:39.199Z,18.37
2018-11-01T23:02:08.414Z,19.43
2018-11-01T23:04:37.635Z,17.93
2018-11-01T23:07:06.923Z,19.63
2018-11-01T23:09:35.760Z,17.73
2018-11-01T23:12:04.660Z,17.83
2018-11-01T23:14:33.538Z,18.10
2018-11-01T23:17:02.089Z,19.37
2018-11-01T23:19:30.826Z,18.60
2018-11-01T23:21:59.529Z,18.93
2018-11-01T23:24:28.700Z,19.23
2018-11-01T23:26:57.379Z,19.50
2018-11-01T23:29:26.961Z,18.40
2018-11-01T23:31:56.035Z,19.47
2018-11-01T23:34:24.837Z,19.73
2018-11-01T23:36:58.693Z,18.77
2018-11-01T23:39:32.746Z,19.57
2018-11-01T23:42:06.873Z,20.77
2018-11-01T23:44:41.251Z,20.10
2018-11-01T23:47:15.586Z,20.27
2018-11-01T23:49:50.861Z,20.90
2018-11-01T23:52:22.585Z,19.90
2018-11-01T23:54:51.989Z,21.00
2018-11-01T23:57:21.321Z,20.73
2018-11-01T23:59:50.377Z,20.50
